sensor_id;sensor_type;location;lat;lon;timestamp;P1;durP1;ratioP1;P2;durP2;ratioP2
5704;SDS011;2877;48.238;11.160;2022-10-26T00:00:40;3.60;;;3.30;;
5704;SDS011;2877;48.238;11.160;2022-10-26T00:03:05;4.90;;;3.20;;
5704;SDS011;2877;48.238;11.160;2022-10-26T00:05:31;5.97;;;3.63;;
5704;SDS011;2877;48.238;11.160;2022-10-26T00:07:58;4.47;;;3.37;;
5704;SDS011;2877;48.238;11.160;2022-10-26T00:10:24;4.30;;;3.37;;
5704;SDS011;2877;48.238;11.160;2022-10-26T00:12:50;6.23;;;3.10;;
5704;SDS011;2877;48.238;11.160;2022-10-26T00:15:16;4.50;;;3.47;;
5704;SDS011;2877;48.238;11.160;2022-10-26T00:17:43;4.00;;;3.33;;
5704;SDS011;2877;48.238;11.160;2022-10-26T00:20:09;6.27;;;3.50;;
5704;SDS011;2877;48.238;11.160;2022-10-26T00:22:35;5.87;;;3.10;;
5704;SDS011;2877;48.238;11.160;2022-10-26T00:25:01;6.13;;;3.50;;
5704;SDS011;2877;48.238;11.160;2022-10-26T00:27:26;8.93;;;3.53;;
5704;SDS011;2877;48.238;11.160;2022-10-26T00:29:52;7.30;;;4.13;;
5704;SDS011;2877;48.238;11.160;2022-10-26T00:32:17;4.27;;;3.30;;
5704;SDS011;2877;48.238;11.160;2022-10-26T00:34:43;5.57;;;3.23;;
5704;SDS011;2877;48.238;11.160;2022-10-26T00:37:08;9.40;;;3.80;;
5704;SDS011;2877;48.238;11.160;2022-10-26T00:39:34;4.57;;;3.27;;
5704;SDS011;2877;48.238;11.160;2022-10-26T00:42:00;4.30;;;3.10;;
5704;SDS011;2877;48.238;11.160;2022-10-26T00:49:49;5.70;;;3.07;;
5704;SDS011;2877;48.238;11.160;2022-10-26T00:52:17;5.27;;;3.43;;
5704;SDS011;2877;48.238;11.160;2022-10-26T00:54:44;3.27;;;3.07;;
5704;SDS011;2877;48.238;11.160;2022-10-26T00:57:10;6.70;;;3.57;;
5704;SDS011;2877;48.238;11.160;2022-10-26T00:59:38;5.10;;;3.00;;
5704;SDS011;2877;48.238;11.160;2022-10-26T01:02:04;6.60;;;3.00;;
5704;SDS011;2877;48.238;11.160;2022-10-26T01:04:30;5.40;;;4.00;;
5704;SDS011;2877;48.238;11.160;2022-10-26T01:06:56;4.07;;;3.40;;
5704;SDS011;2877;48.238;11.160;2022-10-26T01:09:23;4.00;;;3.27;;
5704;SDS011;2877;48.238;11.160;2022-10-26T01:11:49;5.77;;;3.70;;
5704;SDS011;2877;48.238;11.160;2022-10-26T01:14:14;5.13;;;3.40;;
5704;SDS011;2877;48.238;11.160;2022-10-26T01:16:55;6.73;;;3.37;;
5704;SDS011;2877;48.238;11.160;2022-10-26T01:27:46;6.30;;;3.30;;
5704;SDS011;2877;48.238;11.160;2022-10-26T01:41:12;4.23;;;3.10;;
5704;SDS011;2877;48.238;11.160;2022-10-26T01:43:41;7.17;;;3.13;;
5704;SDS011;2877;48.238;11.160;2022-10-26T01:46:10;7.37;;;3.40;;
5704;SDS011;2877;48.238;11.160;2022-10-26T01:48:37;7.37;;;3.73;;
5704;SDS011;2877;48.238;11.160;2022-10-26T01:51:05;9.90;;;3.70;;
5704;SDS011;2877;48.238;11.160;2022-10-26T01:53:33;5.37;;;3.40;;
5704;SDS011;2877;48.238;11.160;2022-10-26T01:55:58;8.43;;;3.10;;
5704;SDS011;2877;48.238;11.160;2022-10-26T02:01:29;3.00;;;2.80;;
5704;SDS011;2877;48.238;11.160;2022-10-26T02:07:02;6.73;;;2.90;;
5704;SDS011;2877;48.238;11.160;2022-10-26T02:12:30;4.07;;;2.83;;
5704;SDS011;2877;48.238;11.160;2022-10-26T02:17:34;7.73;;;4.30;;
5704;SDS011;2877;48.238;11.160;2022-10-26T02:20:03;6.13;;;3.10;;
5704;SDS011;2877;48.238;11.160;2022-10-26T02:22:34;3.50;;;2.90;;
5704;SDS011;2877;48.238;11.160;2022-10-26T02:25:03;4.67;;;3.10;;
5704;SDS011;2877;48.238;11.160;2022-10-26T02:27:37;4.63;;;3.30;;
5704;SDS011;2877;48.238;11.160;2022-10-26T02:30:08;3.50;;;3.13;;
5704;SDS011;2877;48.238;11.160;2022-10-26T02:32:35;5.00;;;3.27;;
5704;SDS011;2877;48.238;11.160;2022-10-26T02:35:03;5.47;;;3.33;;
5704;SDS011;2877;48.238;11.160;2022-10-26T02:37:30;6.57;;;2.50;;
5704;SDS011;2877;48.238;11.160;2022-10-26T02:39:58;5.20;;;2.90;;
5704;SDS011;2877;48.238;11.160;2022-10-26T02:42:27;3.07;;;2.77;;
5704;SDS011;2877;48.238;11.160;2022-10-26T02:44:53;7.20;;;3.00;;
5704;SDS011;2877;48.238;11.160;2022-10-26T02:47:22;3.90;;;2.50;;
5704;SDS011;2877;48.238;11.160;2022-10-26T02:49:50;7.17;;;2.90;;
5704;SDS011;2877;48.238;11.160;2022-10-26T02:55:02;4.90;;;2.50;;
5704;SDS011;2877;48.238;11.160;2022-10-26T02:57:39;4.90;;;2.40;;
5704;SDS011;2877;48.238;11.160;2022-10-26T03:00:08;8.63;;;2.50;;
5704;SDS011;2877;48.238;11.160;2022-10-26T03:02:44;4.87;;;2.63;;
5704;SDS011;2877;48.238;11.160;2022-10-26T03:05:17;6.13;;;3.10;;
5704;SDS011;2877;48.238;11.160;2022-10-26T03:07:45;3.63;;;3.23;;
5704;SDS011;2877;48.238;11.160;2022-10-26T03:10:10;7.03;;;3.30;;
5704;SDS011;2877;48.238;11.160;2022-10-26T03:12:36;6.73;;;3.40;;
5704;SDS011;2877;48.238;11.160;2022-10-26T03:15:02;6.60;;;2.93;;
5704;SDS011;2877;48.238;11.160;2022-10-26T03:17:28;3.43;;;3.13;;
5704;SDS011;2877;48.238;11.160;2022-10-26T03:19:54;5.10;;;3.20;;
5704;SDS011;2877;48.238;11.160;2022-10-26T03:22:20;8.53;;;3.23;;
5704;SDS011;2877;48.238;11.160;2022-10-26T03:24:46;4.77;;;2.90;;
5704;SDS011;2877;48.238;11.160;2022-10-26T03:27:11;4.90;;;3.20;;
5704;SDS011;2877;48.238;11.160;2022-10-26T03:29:37;6.20;;;3.93;;
5704;SDS011;2877;48.238;11.160;2022-10-26T03:32:03;3.10;;;2.80;;
5704;SDS011;2877;48.238;11.160;2022-10-26T03:34:29;2.43;;;2.33;;
5704;SDS011;2877;48.238;11.160;2022-10-26T03:36:54;3.80;;;2.80;;
5704;SDS011;2877;48.238;11.160;2022-10-26T03:39:20;4.20;;;2.73;;
5704;SDS011;2877;48.238;11.160;2022-10-26T03:41:45;3.73;;;3.40;;
5704;SDS011;2877;48.238;11.160;2022-10-26T03:44:12;4.13;;;3.37;;
5704;SDS011;2877;48.238;11.160;2022-10-26T03:46:37;5.43;;;3.43;;
5704;SDS011;2877;48.238;11.160;2022-10-26T03:49:03;8.60;;;3.73;;
5704;SDS011;2877;48.238;11.160;2022-10-26T03:51:29;6.30;;;3.40;;
5704;SDS011;2877;48.238;11.160;2022-10-26T03:53:55;10.80;;;2.80;;
5704;SDS011;2877;48.238;11.160;2022-10-26T03:56:20;4.70;;;2.97;;
5704;SDS011;2877;48.238;11.160;2022-10-26T03:58:46;5.70;;;3.10;;
5704;SDS011;2877;48.238;11.160;2022-10-26T04:01:11;4.57;;;2.73;;
5704;SDS011;2877;48.238;11.160;2022-10-26T04:03:37;3.87;;;2.50;;
5704;SDS011;2877;48.238;11.160;2022-10-26T04:06:02;4.60;;;2.90;;
5704;SDS011;2877;48.238;11.160;2022-10-26T04:08:28;3.50;;;2.70;;
5704;SDS011;2877;48.238;11.160;2022-10-26T04:10:54;7.50;;;3.23;;
5704;SDS011;2877;48.238;11.160;2022-10-26T04:13:19;3.53;;;2.67;;
5704;SDS011;2877;48.238;11.160;2022-10-26T04:15:45;4.47;;;3.13;;
5704;SDS011;2877;48.238;11.160;2022-10-26T04:18:10;5.23;;;3.30;;
5704;SDS011;2877;48.238;11.160;2022-10-26T04:20:37;2.80;;;2.60;;
5704;SDS011;2877;48.238;11.160;2022-10-26T04:23:04;6.90;;;3.07;;
5704;SDS011;2877;48.238;11.160;2022-10-26T04:25:31;3.30;;;2.83;;
5704;SDS011;2877;48.238;11.160;2022-10-26T04:27:57;4.97;;;3.10;;
5704;SDS011;2877;48.238;11.160;2022-10-26T04:30:23;4.70;;;3.00;;
5704;SDS011;2877;48.238;11.160;2022-10-26T04:32:49;4.93;;;3.67;;
5704;SDS011;2877;48.238;11.160;2022-10-26T04:35:15;4.50;;;2.80;;
5704;SDS011;2877;48.238;11.160;2022-10-26T04:37:41;4.93;;;2.93;;
5704;SDS011;2877;48.238;11.160;2022-10-26T04:40:06;3.90;;;3.00;;
5704;SDS011;2877;48.238;11.160;2022-10-26T04:42:45;7.60;;;3.57;;
5704;SDS011;2877;48.238;11.160;2022-10-26T04:45:12;5.23;;;3.43;;
5704;SDS011;2877;48.238;11.160;2022-10-26T04:47:39;4.17;;;2.97;;
5704;SDS011;2877;48.238;11.160;2022-10-26T04:50:05;7.57;;;3.20;;
5704;SDS011;2877;48.238;11.160;2022-10-26T04:52:32;2.87;;;2.67;;
5704;SDS011;2877;48.238;11.160;2022-10-26T04:54:58;3.20;;;2.60;;
5704;SDS011;2877;48.238;11.160;2022-10-26T04:57:24;3.23;;;2.30;;
5704;SDS011;2877;48.238;11.160;2022-10-26T04:59:50;3.40;;;2.40;;
5704;SDS011;2877;48.238;11.160;2022-10-26T05:02:15;2.87;;;2.40;;
5704;SDS011;2877;48.238;11.160;2022-10-26T05:04:41;4.17;;;2.40;;
5704;SDS011;2877;48.238;11.160;2022-10-26T05:07:06;2.83;;;2.00;;
5704;SDS011;2877;48.238;11.160;2022-10-26T05:09:32;2.07;;;1.93;;
5704;SDS011;2877;48.238;11.160;2022-10-26T05:11:57;3.80;;;2.23;;
5704;SDS011;2877;48.238;11.160;2022-10-26T05:14:23;2.30;;;2.00;;
5704;SDS011;2877;48.238;11.160;2022-10-26T05:16:49;2.40;;;2.00;;
5704;SDS011;2877;48.238;11.160;2022-10-26T05:19:15;2.40;;;2.10;;
5704;SDS011;2877;48.238;11.160;2022-10-26T05:21:40;6.40;;;2.33;;
5704;SDS011;2877;48.238;11.160;2022-10-26T05:24:06;2.10;;;1.90;;
5704;SDS011;2877;48.238;11.160;2022-10-26T05:26:32;2.47;;;2.10;;
5704;SDS011;2877;48.238;11.160;2022-10-26T05:28:57;2.37;;;2.10;;
5704;SDS011;2877;48.238;11.160;2022-10-26T05:31:23;3.10;;;2.20;;
5704;SDS011;2877;48.238;11.160;2022-10-26T05:33:49;3.27;;;2.00;;
5704;SDS011;2877;48.238;11.160;2022-10-26T05:36:19;2.33;;;2.00;;
5704;SDS011;2877;48.238;11.160;2022-10-26T05:38:45;3.30;;;1.80;;
5704;SDS011;2877;48.238;11.160;2022-10-26T05:41:11;2.03;;;1.83;;
5704;SDS011;2877;48.238;11.160;2022-10-26T05:43:36;2.30;;;2.10;;
5704;SDS011;2877;48.238;11.160;2022-10-26T05:46:02;3.30;;;2.30;;
5704;SDS011;2877;48.238;11.160;2022-10-26T05:48:27;6.03;;;2.50;;
5704;SDS011;2877;48.238;11.160;2022-10-26T05:50:53;6.43;;;2.90;;
5704;SDS011;2877;48.238;11.160;2022-10-26T05:53:22;11.23;;;2.20;;
5704;SDS011;2877;48.238;11.160;2022-10-26T05:55:48;4.60;;;2.20;;
5704;SDS011;2877;48.238;11.160;2022-10-26T05:58:14;2.23;;;2.03;;
5704;SDS011;2877;48.238;11.160;2022-10-26T06:00:43;4.83;;;2.23;;
5704;SDS011;2877;48.238;11.160;2022-10-26T06:03:21;2.40;;;2.10;;
5704;SDS011;2877;48.238;11.160;2022-10-26T06:06:05;5.70;;;2.17;;
5704;SDS011;2877;48.238;11.160;2022-10-26T06:08:34;6.63;;;2.17;;
5704;SDS011;2877;48.238;11.160;2022-10-26T06:11:00;4.00;;;3.20;;
5704;SDS011;2877;48.238;11.160;2022-10-26T06:13:27;4.40;;;3.07;;
5704;SDS011;2877;48.238;11.160;2022-10-26T06:18:53;2.10;;;2.00;;
5704;SDS011;2877;48.238;11.160;2022-10-26T06:27:55;7.40;;;4.27;;
5704;SDS011;2877;48.238;11.160;2022-10-26T06:30:47;3.17;;;2.73;;
5704;SDS011;2877;48.238;11.160;2022-10-26T06:33:13;7.83;;;2.70;;
5704;SDS011;2877;48.238;11.160;2022-10-26T06:38:17;1.87;;;1.77;;
5704;SDS011;2877;48.238;11.160;2022-10-26T06:40:47;2.20;;;2.00;;
5704;SDS011;2877;48.238;11.160;2022-10-26T06:43:21;2.40;;;2.20;;
5704;SDS011;2877;48.238;11.160;2022-10-26T06:45:51;1.73;;;1.60;;
5704;SDS011;2877;48.238;11.160;2022-10-26T06:51:20;4.00;;;1.80;;
5704;SDS011;2877;48.238;11.160;2022-10-26T06:53:51;5.90;;;2.20;;
5704;SDS011;2877;48.238;11.160;2022-10-26T06:56:37;2.40;;;1.73;;
5704;SDS011;2877;48.238;11.160;2022-10-26T06:59:06;1.83;;;1.53;;
5704;SDS011;2877;48.238;11.160;2022-10-26T07:01:37;3.10;;;1.87;;
5704;SDS011;2877;48.238;11.160;2022-10-26T07:04:03;2.37;;;1.40;;
5704;SDS011;2877;48.238;11.160;2022-10-26T07:06:28;1.57;;;1.37;;
5704;SDS011;2877;48.238;11.160;2022-10-26T07:08:54;1.87;;;1.50;;
5704;SDS011;2877;48.238;11.160;2022-10-26T07:11:20;1.83;;;1.40;;
5704;SDS011;2877;48.238;11.160;2022-10-26T07:13:45;1.77;;;1.27;;
5704;SDS011;2877;48.238;11.160;2022-10-26T07:16:11;1.37;;;1.13;;
5704;SDS011;2877;48.238;11.160;2022-10-26T07:18:36;1.27;;;1.17;;
5704;SDS011;2877;48.238;11.160;2022-10-26T07:21:02;1.73;;;1.30;;
5704;SDS011;2877;48.238;11.160;2022-10-26T07:23:27;2.30;;;1.37;;
5704;SDS011;2877;48.238;11.160;2022-10-26T07:25:53;3.97;;;1.60;;
5704;SDS011;2877;48.238;11.160;2022-10-26T07:28:18;3.37;;;1.20;;
5704;SDS011;2877;48.238;11.160;2022-10-26T07:30:44;3.33;;;1.10;;
5704;SDS011;2877;48.238;11.160;2022-10-26T07:33:10;1.40;;;1.30;;
5704;SDS011;2877;48.238;11.160;2022-10-26T07:35:37;1.87;;;1.20;;
5704;SDS011;2877;48.238;11.160;2022-10-26T07:38:04;1.40;;;1.30;;
5704;SDS011;2877;48.238;11.160;2022-10-26T07:40:30;2.80;;;1.80;;
5704;SDS011;2877;48.238;11.160;2022-10-26T07:42:56;4.13;;;1.57;;
5704;SDS011;2877;48.238;11.160;2022-10-26T07:45:23;2.03;;;1.60;;
5704;SDS011;2877;48.238;11.160;2022-10-26T07:47:50;2.20;;;1.50;;
5704;SDS011;2877;48.238;11.160;2022-10-26T07:50:15;4.27;;;1.67;;
5704;SDS011;2877;48.238;11.160;2022-10-26T07:52:41;1.83;;;1.20;;
5704;SDS011;2877;48.238;11.160;2022-10-26T07:55:10;2.50;;;1.40;;
5704;SDS011;2877;48.238;11.160;2022-10-26T07:57:36;1.53;;;1.43;;
5704;SDS011;2877;48.238;11.160;2022-10-26T08:00:02;1.30;;;1.20;;
5704;SDS011;2877;48.238;11.160;2022-10-26T08:02:29;1.73;;;1.63;;
5704;SDS011;2877;48.238;11.160;2022-10-26T08:04:55;2.60;;;1.97;;
5704;SDS011;2877;48.238;11.160;2022-10-26T08:07:20;1.50;;;1.37;;
5704;SDS011;2877;48.238;11.160;2022-10-26T08:09:46;2.00;;;1.23;;
5704;SDS011;2877;48.238;11.160;2022-10-26T08:12:11;3.37;;;0.93;;
5704;SDS011;2877;48.238;11.160;2022-10-26T08:14:40;3.03;;;1.03;;
5704;SDS011;2877;48.238;11.160;2022-10-26T08:17:06;1.20;;;1.10;;
5704;SDS011;2877;48.238;11.160;2022-10-26T08:19:32;1.40;;;1.10;;
5704;SDS011;2877;48.238;11.160;2022-10-26T08:21:57;3.73;;;1.10;;
5704;SDS011;2877;48.238;11.160;2022-10-26T08:24:23;4.00;;;1.20;;
5704;SDS011;2877;48.238;11.160;2022-10-26T08:26:48;2.40;;;1.30;;
5704;SDS011;2877;48.238;11.160;2022-10-26T08:29:14;1.50;;;1.30;;
5704;SDS011;2877;48.238;11.160;2022-10-26T08:31:40;1.83;;;1.57;;
5704;SDS011;2877;48.238;11.160;2022-10-26T08:34:05;2.87;;;1.43;;
5704;SDS011;2877;48.238;11.160;2022-10-26T08:36:31;1.90;;;1.50;;
5704;SDS011;2877;48.238;11.160;2022-10-26T08:38:56;3.57;;;1.60;;
5704;SDS011;2877;48.238;11.160;2022-10-26T08:41:33;2.60;;;1.30;;
5704;SDS011;2877;48.238;11.160;2022-10-26T08:44:47;1.40;;;1.30;;
5704;SDS011;2877;48.238;11.160;2022-10-26T08:47:05;2.87;;;1.20;;
5704;SDS011;2877;48.238;11.160;2022-10-26T08:49:40;8.53;;;1.10;;
5704;SDS011;2877;48.238;11.160;2022-10-26T08:55:15;3.27;;;1.20;;
5704;SDS011;2877;48.238;11.160;2022-10-26T08:57:43;2.57;;;1.30;;
5704;SDS011;2877;48.238;11.160;2022-10-26T09:00:16;4.73;;;1.20;;
5704;SDS011;2877;48.238;11.160;2022-10-26T09:02:48;2.20;;;2.10;;
5704;SDS011;2877;48.238;11.160;2022-10-26T09:05:15;2.30;;;1.63;;
5704;SDS011;2877;48.238;11.160;2022-10-26T09:07:58;4.40;;;2.57;;
5704;SDS011;2877;48.238;11.160;2022-10-26T09:13:24;2.20;;;2.00;;
5704;SDS011;2877;48.238;11.160;2022-10-26T09:26:54;2.00;;;1.20;;
5704;SDS011;2877;48.238;11.160;2022-10-26T09:29:33;1.40;;;1.30;;
5704;SDS011;2877;48.238;11.160;2022-10-26T09:32:03;9.67;;;1.73;;
5704;SDS011;2877;48.238;11.160;2022-10-26T09:34:38;2.70;;;1.40;;
5704;SDS011;2877;48.238;11.160;2022-10-26T09:37:26;2.03;;;1.00;;
5704;SDS011;2877;48.238;11.160;2022-10-26T09:42:43;4.23;;;1.20;;
5704;SDS011;2877;48.238;11.160;2022-10-26T09:45:32;5.50;;;1.13;;
5704;SDS011;2877;48.238;11.160;2022-10-26T09:48:35;3.00;;;1.27;;
5704;SDS011;2877;48.238;11.160;2022-10-26T09:50:58;1.93;;;1.20;;
5704;SDS011;2877;48.238;11.160;2022-10-26T09:53:24;1.20;;;1.10;;
5704;SDS011;2877;48.238;11.160;2022-10-26T09:55:52;1.73;;;1.20;;
5704;SDS011;2877;48.238;11.160;2022-10-26T09:58:43;1.70;;;1.40;;
5704;SDS011;2877;48.238;11.160;2022-10-26T10:09:27;2.53;;;1.10;;
5704;SDS011;2877;48.238;11.160;2022-10-26T10:11:56;4.37;;;1.20;;
5704;SDS011;2877;48.238;11.160;2022-10-26T10:14:29;0.90;;;0.90;;
5704;SDS011;2877;48.238;11.160;2022-10-26T10:16:56;5.73;;;1.07;;
5704;SDS011;2877;48.238;11.160;2022-10-26T10:19:25;4.60;;;1.77;;
5704;SDS011;2877;48.238;11.160;2022-10-26T10:21:56;2.33;;;1.13;;
5704;SDS011;2877;48.238;11.160;2022-10-26T10:24:24;4.93;;;1.13;;
5704;SDS011;2877;48.238;11.160;2022-10-26T10:29:31;1.27;;;1.17;;
5704;SDS011;2877;48.238;11.160;2022-10-26T10:32:03;2.60;;;1.07;;
5704;SDS011;2877;48.238;11.160;2022-10-26T10:34:29;3.00;;;1.10;;
5704;SDS011;2877;48.238;11.160;2022-10-26T10:36:56;1.67;;;1.00;;
5704;SDS011;2877;48.238;11.160;2022-10-26T10:39:33;18.00;;;1.93;;
5704;SDS011;2877;48.238;11.160;2022-10-26T10:42:17;1.63;;;1.10;;
5704;SDS011;2877;48.238;11.160;2022-10-26T10:44:46;2.03;;;1.30;;
5704;SDS011;2877;48.238;11.160;2022-10-26T10:47:23;2.97;;;1.40;;
5704;SDS011;2877;48.238;11.160;2022-10-26T10:49:53;2.13;;;1.30;;
5704;SDS011;2877;48.238;11.160;2022-10-26T10:52:35;5.20;;;1.40;;
5704;SDS011;2877;48.238;11.160;2022-10-26T10:55:09;2.47;;;1.23;;
5704;SDS011;2877;48.238;11.160;2022-10-26T11:00:23;1.33;;;1.10;;
5704;SDS011;2877;48.238;11.160;2022-10-26T11:03:24;2.70;;;1.40;;
5704;SDS011;2877;48.238;11.160;2022-10-26T11:08:44;4.20;;;1.20;;
5704;SDS011;2877;48.238;11.160;2022-10-26T11:16:54;3.07;;;1.27;;
5704;SDS011;2877;48.238;11.160;2022-10-26T11:19:32;3.50;;;1.20;;
5704;SDS011;2877;48.238;11.160;2022-10-26T11:22:19;7.70;;;1.77;;
5704;SDS011;2877;48.238;11.160;2022-10-26T11:24:53;3.90;;;1.43;;
5704;SDS011;2877;48.238;11.160;2022-10-26T11:27:34;3.50;;;1.40;;
5704;SDS011;2877;48.238;11.160;2022-10-26T11:30:20;3.17;;;1.70;;
5704;SDS011;2877;48.238;11.160;2022-10-26T11:32:49;9.37;;;1.50;;
5704;SDS011;2877;48.238;11.160;2022-10-26T11:41:31;3.63;;;1.60;;
5704;SDS011;2877;48.238;11.160;2022-10-26T11:44:02;5.63;;;1.50;;
5704;SDS011;2877;48.238;11.160;2022-10-26T11:46:36;9.10;;;2.07;;
5704;SDS011;2877;48.238;11.160;2022-10-26T11:54:43;5.83;;;1.50;;
5704;SDS011;2877;48.238;11.160;2022-10-26T11:57:11;5.30;;;1.57;;
5704;SDS011;2877;48.238;11.160;2022-10-26T11:59:41;4.93;;;1.70;;
5704;SDS011;2877;48.238;11.160;2022-10-26T12:02:15;5.50;;;1.80;;
5704;SDS011;2877;48.238;11.160;2022-10-26T12:04:44;3.40;;;1.60;;
5704;SDS011;2877;48.238;11.160;2022-10-26T12:07:19;4.03;;;1.63;;
5704;SDS011;2877;48.238;11.160;2022-10-26T12:09:56;2.80;;;1.37;;
5704;SDS011;2877;48.238;11.160;2022-10-26T12:12:31;5.07;;;1.87;;
5704;SDS011;2877;48.238;11.160;2022-10-26T12:15:51;7.30;;;2.00;;
5704;SDS011;2877;48.238;11.160;2022-10-26T12:18:25;4.43;;;1.37;;
5704;SDS011;2877;48.238;11.160;2022-10-26T12:21:14;4.63;;;1.67;;
5704;SDS011;2877;48.238;11.160;2022-10-26T12:23:54;2.80;;;1.40;;
5704;SDS011;2877;48.238;11.160;2022-10-26T12:26:46;5.90;;;1.70;;
5704;SDS011;2877;48.238;11.160;2022-10-26T12:29:24;5.53;;;1.60;;
5704;SDS011;2877;48.238;11.160;2022-10-26T12:31:56;2.93;;;1.20;;
5704;SDS011;2877;48.238;11.160;2022-10-26T12:34:23;3.60;;;1.63;;
5704;SDS011;2877;48.238;11.160;2022-10-26T12:37:10;4.40;;;1.47;;
5704;SDS011;2877;48.238;11.160;2022-10-26T12:39:47;3.47;;;1.77;;
5704;SDS011;2877;48.238;11.160;2022-10-26T12:47:07;6.23;;;1.80;;
5704;SDS011;2877;48.238;11.160;2022-10-26T12:55:24;2.67;;;1.50;;
5704;SDS011;2877;48.238;11.160;2022-10-26T13:03:49;2.70;;;1.63;;
5704;SDS011;2877;48.238;11.160;2022-10-26T13:09:15;3.67;;;1.53;;
5704;SDS011;2877;48.238;11.160;2022-10-26T13:11:46;7.93;;;1.60;;
5704;SDS011;2877;48.238;11.160;2022-10-26T13:14:22;5.73;;;2.23;;
5704;SDS011;2877;48.238;11.160;2022-10-26T13:16:50;4.63;;;1.40;;
5704;SDS011;2877;48.238;11.160;2022-10-26T13:19:21;7.90;;;1.67;;
5704;SDS011;2877;48.238;11.160;2022-10-26T13:21:49;3.77;;;1.60;;
5704;SDS011;2877;48.238;11.160;2022-10-26T13:24:15;5.00;;;1.53;;
5704;SDS011;2877;48.238;11.160;2022-10-26T13:29:32;9.60;;;2.47;;
5704;SDS011;2877;48.238;11.160;2022-10-26T13:32:18;4.90;;;1.90;;
5704;SDS011;2877;48.238;11.160;2022-10-26T13:34:44;3.73;;;1.93;;
5704;SDS011;2877;48.238;11.160;2022-10-26T13:37:21;9.30;;;2.47;;
5704;SDS011;2877;48.238;11.160;2022-10-26T13:39:50;4.47;;;1.70;;
5704;SDS011;2877;48.238;11.160;2022-10-26T13:42:20;3.60;;;1.60;;
5704;SDS011;2877;48.238;11.160;2022-10-26T13:44:54;6.40;;;1.87;;
5704;SDS011;2877;48.238;11.160;2022-10-26T13:47:31;6.63;;;1.93;;
5704;SDS011;2877;48.238;11.160;2022-10-26T13:50:18;14.30;;;1.80;;
5704;SDS011;2877;48.238;11.160;2022-10-26T13:52:50;8.83;;;1.90;;
5704;SDS011;2877;48.238;11.160;2022-10-26T14:00:36;4.60;;;1.47;;
5704;SDS011;2877;48.238;11.160;2022-10-26T14:03:12;6.00;;;1.50;;
5704;SDS011;2877;48.238;11.160;2022-10-26T14:05:42;9.93;;;2.10;;
5704;SDS011;2877;48.238;11.160;2022-10-26T14:08:14;4.90;;;1.80;;
5704;SDS011;2877;48.238;11.160;2022-10-26T14:10:43;4.40;;;1.80;;
5704;SDS011;2877;48.238;11.160;2022-10-26T14:13:13;2.50;;;1.73;;
5704;SDS011;2877;48.238;11.160;2022-10-26T14:15:42;8.77;;;2.10;;
5704;SDS011;2877;48.238;11.160;2022-10-26T14:18:16;3.27;;;1.40;;
5704;SDS011;2877;48.238;11.160;2022-10-26T14:21:26;11.10;;;2.77;;
5704;SDS011;2877;48.238;11.160;2022-10-26T14:28:58;4.63;;;2.13;;
5704;SDS011;2877;48.238;11.160;2022-10-26T14:33:54;7.73;;;3.87;;
5704;SDS011;2877;48.238;11.160;2022-10-26T14:36:23;9.13;;;2.37;;
5704;SDS011;2877;48.238;11.160;2022-10-26T14:38:57;8.27;;;3.93;;
5704;SDS011;2877;48.238;11.160;2022-10-26T14:41:30;11.53;;;3.37;;
5704;SDS011;2877;48.238;11.160;2022-10-26T14:44:00;10.20;;;3.97;;
5704;SDS011;2877;48.238;11.160;2022-10-26T14:46:26;25.17;;;9.17;;
5704;SDS011;2877;48.238;11.160;2022-10-26T14:48:58;20.70;;;8.30;;
5704;SDS011;2877;48.238;11.160;2022-10-26T14:51:26;13.40;;;7.00;;
5704;SDS011;2877;48.238;11.160;2022-10-26T14:53:55;9.97;;;4.07;;
5704;SDS011;2877;48.238;11.160;2022-10-26T14:56:23;11.20;;;4.13;;
5704;SDS011;2877;48.238;11.160;2022-10-26T14:58:55;6.80;;;2.73;;
5704;SDS011;2877;48.238;11.160;2022-10-26T15:03:53;8.43;;;2.80;;
5704;SDS011;2877;48.238;11.160;2022-10-26T15:06:28;7.27;;;2.50;;
5704;SDS011;2877;48.238;11.160;2022-10-26T15:08:59;14.40;;;2.40;;
5704;SDS011;2877;48.238;11.160;2022-10-26T15:11:28;5.73;;;2.87;;
5704;SDS011;2877;48.238;11.160;2022-10-26T15:13:55;10.40;;;3.20;;
5704;SDS011;2877;48.238;11.160;2022-10-26T15:16:23;12.77;;;4.27;;
5704;SDS011;2877;48.238;11.160;2022-10-26T15:18:54;11.03;;;3.77;;
5704;SDS011;2877;48.238;11.160;2022-10-26T15:21:38;15.83;;;7.10;;
5704;SDS011;2877;48.238;11.160;2022-10-26T15:24:26;13.47;;;3.70;;
5704;SDS011;2877;48.238;11.160;2022-10-26T15:27:00;12.20;;;2.23;;
5704;SDS011;2877;48.238;11.160;2022-10-26T15:29:40;4.20;;;1.93;;
5704;SDS011;2877;48.238;11.160;2022-10-26T15:32:24;6.03;;;1.90;;
5704;SDS011;2877;48.238;11.160;2022-10-26T15:35:12;4.50;;;2.37;;
5704;SDS011;2877;48.238;11.160;2022-10-26T15:37:45;9.07;;;3.27;;
5704;SDS011;2877;48.238;11.160;2022-10-26T15:40:11;4.90;;;2.97;;
5704;SDS011;2877;48.238;11.160;2022-10-26T15:42:37;6.67;;;4.07;;
5704;SDS011;2877;48.238;11.160;2022-10-26T15:45:26;12.73;;;4.30;;
5704;SDS011;2877;48.238;11.160;2022-10-26T15:47:52;6.03;;;2.70;;
5704;SDS011;2877;48.238;11.160;2022-10-26T15:50:24;5.73;;;2.20;;
5704;SDS011;2877;48.238;11.160;2022-10-26T15:52:55;6.73;;;2.60;;
5704;SDS011;2877;48.238;11.160;2022-10-26T15:55:25;8.70;;;3.40;;
5704;SDS011;2877;48.238;11.160;2022-10-26T15:57:51;7.00;;;3.27;;
5704;SDS011;2877;48.238;11.160;2022-10-26T16:00:17;8.67;;;3.10;;
5704;SDS011;2877;48.238;11.160;2022-10-26T16:02:43;6.63;;;2.53;;
5704;SDS011;2877;48.238;11.160;2022-10-26T16:05:13;8.10;;;2.90;;
5704;SDS011;2877;48.238;11.160;2022-10-26T16:07:40;6.13;;;2.27;;
5704;SDS011;2877;48.238;11.160;2022-10-26T16:10:10;7.07;;;2.40;;
5704;SDS011;2877;48.238;11.160;2022-10-26T16:12:38;5.50;;;2.27;;
5704;SDS011;2877;48.238;11.160;2022-10-26T16:15:04;3.70;;;2.10;;
5704;SDS011;2877;48.238;11.160;2022-10-26T16:17:30;5.00;;;2.60;;
5704;SDS011;2877;48.238;11.160;2022-10-26T16:19:57;5.20;;;2.33;;
5704;SDS011;2877;48.238;11.160;2022-10-26T16:22:23;17.63;;;2.43;;
5704;SDS011;2877;48.238;11.160;2022-10-26T16:24:49;10.87;;;2.17;;
5704;SDS011;2877;48.238;11.160;2022-10-26T16:27:15;6.10;;;2.17;;
5704;SDS011;2877;48.238;11.160;2022-10-26T16:29:40;14.43;;;2.60;;
5704;SDS011;2877;48.238;11.160;2022-10-26T16:32:06;7.80;;;2.37;;
5704;SDS011;2877;48.238;11.160;2022-10-26T16:34:31;6.27;;;2.30;;
5704;SDS011;2877;48.238;11.160;2022-10-26T16:36:57;5.50;;;2.03;;
5704;SDS011;2877;48.238;11.160;2022-10-26T16:39:22;9.07;;;2.93;;
5704;SDS011;2877;48.238;11.160;2022-10-26T16:41:48;9.70;;;3.93;;
5704;SDS011;2877;48.238;11.160;2022-10-26T16:44:14;9.33;;;4.43;;
5704;SDS011;2877;48.238;11.160;2022-10-26T16:46:40;9.27;;;4.60;;
5704;SDS011;2877;48.238;11.160;2022-10-26T16:49:05;12.20;;;4.00;;
5704;SDS011;2877;48.238;11.160;2022-10-26T16:51:31;6.10;;;4.10;;
5704;SDS011;2877;48.238;11.160;2022-10-26T16:53:58;6.70;;;3.20;;
5704;SDS011;2877;48.238;11.160;2022-10-26T16:56:25;13.40;;;3.70;;
5704;SDS011;2877;48.238;11.160;2022-10-26T16:58:52;5.20;;;2.43;;
5704;SDS011;2877;48.238;11.160;2022-10-26T17:01:18;9.50;;;2.57;;
5704;SDS011;2877;48.238;11.160;2022-10-26T17:03:45;4.67;;;2.77;;
5704;SDS011;2877;48.238;11.160;2022-10-26T17:06:12;13.07;;;4.60;;
5704;SDS011;2877;48.238;11.160;2022-10-26T17:08:38;6.43;;;3.40;;
5704;SDS011;2877;48.238;11.160;2022-10-26T17:11:09;4.87;;;2.40;;
5704;SDS011;2877;48.238;11.160;2022-10-26T17:13:36;5.73;;;2.87;;
5704;SDS011;2877;48.238;11.160;2022-10-26T17:16:03;6.93;;;1.90;;
5704;SDS011;2877;48.238;11.160;2022-10-26T17:18:30;9.50;;;2.23;;
5704;SDS011;2877;48.238;11.160;2022-10-26T17:20:56;9.23;;;2.57;;
5704;SDS011;2877;48.238;11.160;2022-10-26T17:23:21;10.63;;;3.67;;
5704;SDS011;2877;48.238;11.160;2022-10-26T17:25:47;15.90;;;6.97;;
5704;SDS011;2877;48.238;11.160;2022-10-26T17:28:13;11.50;;;4.13;;
5704;SDS011;2877;48.238;11.160;2022-10-26T17:30:38;6.50;;;3.10;;
5704;SDS011;2877;48.238;11.160;2022-10-26T17:33:04;9.90;;;2.70;;
5704;SDS011;2877;48.238;11.160;2022-10-26T17:35:31;15.83;;;2.93;;
5704;SDS011;2877;48.238;11.160;2022-10-26T17:38:00;11.90;;;3.33;;
5704;SDS011;2877;48.238;11.160;2022-10-26T17:40:26;8.20;;;3.70;;